Dublin, IN

6:55 AM EDT on May 30, 2015 (GMT -0400)
INDOT | | Change Station
CLOSE
Current Station
Personal Weather Station
Location: New Lisbon, IN
Elevation: 1098 ft
Nearby Weather Stations

Elev 1098 ft 39.86 °N, 85.24 °W | Updated 39 minutes ago

Clear
Clear
67 °F
Feels Like 67 °F
N
1
Wind Variable Wind from South
Gusts 5.0 mph

Today
High -- | Low -- °F
--% Chance of Precip.
Yesterday
High -- | Low -- °F
Precip. -- in
6:15 AM 9:01 PM
Waxing Gibbous, 89% visible
Pressure 29.99 in
Visibility 10.0 miles
Clouds Clear
Dew Point 67 °F
Humidity 99%
Rainfall in
Snow Depth Not available.
UV 0 out of 12
Pollen 6.60 out of 12
Air Quality Not available.
Flu Activity No Activity
METAR KMIE 300953Z 19004KT 10SM CLR 21/18 A3002 RMK AO2 SLP155 T02060183

More Conditions Fewer Conditions

Pressure 29.99 in
Visibility 10.0 miles
Clouds Clear
Dew Point 67 °F
Humidity 99%
Rainfall in
Snow Depth Not available.
UV 0 out of 12
Pollen 6.60 out of 12
Air Quality Not available.
Flu Activity No Activity
METAR KMIE 300953Z 19004KT 10SM CLR 21/18 A3002 RMK AO2 SLP155 T02060183

More Conditions Fewer Conditions

10-Day Weather Forecast

Almanac

Astronomy

May. 30, 2015 Rise Set
Actual Time
Civil Twilight
Nautical Twilight
Astronomical Twilight
Moon
Length of Visible Light
Length of Day
Tomorrow will be .
, % of the Moon is Illuminated

Today's Extremes

State Highs State Lows

Community

WunderPhotos

Upload Photos

1,825,478 photos uploaded!

WunderBlogs® & News

Nearby

Air Quality

  Air Quality AQ Index Pollutant
Not available.

Snow Depth

Station Depth Elevation

Earthquake Activity

City Distance Mag. Time & Date
Minimum magnitude displayed is 2.5.

Coastal Water Temperatures

Place Temperature

Stations

Nearby Weather Stations

Station Location Temp. Windchill Dew Point Humidity Wind Precip. Elev Updated Type